createdAt,value
2023-02-21T00:00:02.386Z,30.23
2023-02-21T00:02:22.027Z,29.10
2023-02-21T00:07:04.529Z,29.60
2023-02-21T00:09:24.362Z,33.05
2023-02-21T00:11:44.077Z,32.17
2023-02-21T00:14:03.797Z,32.42
2023-02-21T00:16:24.095Z,32.13
2023-02-21T00:18:44.354Z,31.60
2023-02-21T00:21:04.580Z,31.67
2023-02-21T00:23:24.429Z,33.80
2023-02-21T00:25:44.783Z,33.30
2023-02-21T00:28:04.562Z,30.33
2023-02-21T00:30:26.060Z,31.40
2023-02-21T00:32:46.126Z,33.20
2023-02-21T00:35:06.234Z,32.00
2023-02-21T00:37:25.998Z,36.22
2023-02-21T00:43:01.141Z,33.65
2023-02-21T00:45:21.012Z,35.05
2023-02-21T00:47:40.758Z,35.83
2023-02-21T00:50:00.487Z,35.00
2023-02-21T00:52:20.231Z,40.05
2023-02-21T00:54:40.024Z,32.08
2023-02-21T00:56:59.829Z,37.28
2023-02-21T00:59:20.021Z,35.35
2023-02-21T01:01:39.855Z,33.63
2023-02-21T01:03:59.816Z,35.30
2023-02-21T01:06:19.707Z,37.47
2023-02-21T01:08:39.384Z,35.22
2023-02-21T01:10:59.767Z,30.98
2023-02-21T01:13:20.043Z,38.13
2023-02-21T01:15:39.990Z,35.35
2023-02-21T01:17:59.977Z,33.72
2023-02-21T01:20:20.455Z,37.83
2023-02-21T01:22:40.512Z,36.00
2023-02-21T01:25:00.895Z,42.03
2023-02-21T01:27:20.823Z,34.90
2023-02-21T01:29:40.509Z,36.03
2023-02-21T01:32:00.376Z,37.38
2023-02-21T01:34:20.582Z,37.47
2023-02-21T01:36:40.825Z,38.58
2023-02-21T01:39:01.107Z,41.67
2023-02-21T01:41:20.890Z,39.65
2023-02-21T01:43:42.696Z,37.00
2023-02-21T01:46:09.805Z,40.30
2023-02-21T01:48:35.508Z,40.45
2023-02-21T01:50:55.106Z,39.80
2023-02-21T01:55:35.205Z,37.97
2023-02-21T01:57:57.460Z,37.95
2023-02-21T02:00:20.236Z,41.08
2023-02-21T02:02:52.152Z,41.85
2023-02-21T02:05:14.005Z,41.72
2023-02-21T02:07:34.232Z,39.97
2023-02-21T02:09:54.006Z,43.78
2023-02-21T02:12:24.825Z,48.63
2023-02-21T02:14:37.580Z,40.97
2023-02-21T02:16:46.967Z,41.75
2023-02-21T02:19:03.453Z,40.33
2023-02-21T02:21:25.029Z,43.55
2023-02-21T02:23:44.524Z,43.05
2023-02-21T02:26:07.757Z,39.08
2023-02-21T02:28:33.506Z,44.00
2023-02-21T02:31:15.752Z,46.67
2023-02-21T02:33:45.797Z,43.85
2023-02-21T02:35:56.106Z,44.38
2023-02-21T02:38:07.152Z,40.90
2023-02-21T02:40:39.310Z,41.67
2023-02-21T02:45:06.803Z,41.75
2023-02-21T02:47:17.308Z,47.25
2023-02-21T02:49:23.572Z,46.20
2023-02-21T02:51:26.620Z,43.72
2023-02-21T02:53:30.154Z,44.92
2023-02-21T02:55:41.661Z,47.35
2023-02-21T02:57:48.664Z,44.28
2023-02-21T03:02:20.631Z,46.80
2023-02-21T03:04:49.897Z,49.65
2023-02-21T03:07:02.707Z,46.88
2023-02-21T03:09:23.201Z,46.50
2023-02-21T03:11:26.791Z,45.60
2023-02-21T03:13:36.462Z,49.20
2023-02-21T03:16:04.040Z,45.20
2023-02-21T03:18:21.057Z,45.38
2023-02-21T03:20:24.495Z,49.47
2023-02-21T03:22:30.671Z,45.00
2023-02-21T03:24:34.422Z,45.80
2023-02-21T03:26:38.736Z,48.65
2023-02-21T03:28:41.302Z,48.25
2023-02-21T03:30:45.616Z,49.80
2023-02-21T03:32:51.829Z,47.50
2023-02-21T03:34:53.421Z,51.83
2023-02-21T03:36:55.706Z,51.00
2023-02-21T03:38:57.065Z,51.92
2023-02-21T03:40:58.630Z,50.25
2023-02-21T03:43:02.341Z,49.25
2023-02-21T03:45:03.909Z,44.97
2023-02-21T03:47:05.369Z,51.90
2023-02-21T03:49:06.770Z,48.47
2023-02-21T03:51:08.168Z,49.45
2023-02-21T03:53:10.325Z,54.97
2023-02-21T03:55:12.302Z,54.53
2023-02-21T03:57:13.705Z,51.85
2023-02-21T03:59:15.088Z,52.55
2023-02-21T04:01:17.186Z,53.97
2023-02-21T04:03:18.834Z,48.60
2023-02-21T04:05:20.199Z,48.83
2023-02-21T04:07:22.386Z,55.03
2023-02-21T04:09:25.736Z,53.22
2023-02-21T04:11:27.204Z,58.05
2023-02-21T04:13:28.626Z,53.10
2023-02-21T04:15:29.976Z,55.33
2023-02-21T04:17:31.397Z,54.13
2023-02-21T04:19:32.855Z,52.63
2023-02-21T04:21:34.326Z,49.92
2023-02-21T04:23:35.821Z,51.72
2023-02-21T04:25:37.204Z,58.20
2023-02-21T04:27:38.553Z,52.47
2023-02-21T04:29:39.942Z,57.10
2023-02-21T04:31:41.443Z,49.63
2023-02-21T04:33:43.378Z,58.05
2023-02-21T04:35:44.828Z,56.92
2023-02-21T04:37:46.533Z,59.42
2023-02-21T04:39:48.049Z,57.13
2023-02-21T04:41:49.449Z,53.38
2023-02-21T04:43:50.885Z,58.20
2023-02-21T04:45:52.337Z,56.28
2023-02-21T04:47:53.701Z,53.85
2023-02-21T04:49:55.188Z,59.85
2023-02-21T04:51:56.673Z,55.45
2023-02-21T04:53:58.086Z,56.47
2023-02-21T04:55:59.625Z,61.13
2023-02-21T04:58:01.139Z,61.42
2023-02-21T05:00:06.290Z,55.00
2023-02-21T05:02:08.534Z,55.22
2023-02-21T05:04:10.089Z,57.25
2023-02-21T05:06:17.676Z,53.95
2023-02-21T05:08:19.060Z,63.83
2023-02-21T05:10:20.478Z,65.00
2023-02-21T05:12:21.872Z,60.92
2023-02-21T05:14:23.494Z,54.10
2023-02-21T05:16:25.582Z,61.85
2023-02-21T05:18:28.281Z,63.90
2023-02-21T05:20:29.724Z,59.85
2023-02-21T05:22:31.150Z,60.80
2023-02-21T05:24:33.160Z,57.45
2023-02-21T05:26:36.955Z,57.70
2023-02-21T05:28:40.211Z,57.28
2023-02-21T05:30:41.730Z,55.55
2023-02-21T05:32:43.265Z,54.20
2023-02-21T05:34:46.850Z,55.05
2023-02-21T05:36:48.325Z,59.97
2023-02-21T05:38:55.429Z,59.60
2023-02-21T05:40:56.950Z,55.78
2023-02-21T05:42:58.354Z,57.42
2023-02-21T05:44:59.829Z,57.45
2023-02-21T05:47:02.358Z,58.47
2023-02-21T05:49:04.273Z,61.38
2023-02-21T05:51:05.769Z,58.72
2023-02-21T05:53:09.792Z,60.42
2023-02-21T05:55:11.844Z,60.78
2023-02-21T05:57:13.282Z,59.75
2023-02-21T05:59:16.616Z,58.08
2023-02-21T06:01:18.362Z,55.90
2023-02-21T06:03:19.827Z,58.63
2023-02-21T06:05:22.098Z,56.08
2023-02-21T06:07:23.495Z,55.15
2023-02-21T06:09:25.422Z,59.60
2023-02-21T06:11:29.226Z,60.45
2023-02-21T06:13:32.909Z,56.85
2023-02-21T06:15:34.411Z,64.90
2023-02-21T06:17:39.381Z,55.20
2023-02-21T06:19:40.735Z,56.65
2023-02-21T06:21:43.126Z,60.10
2023-02-21T06:23:45.005Z,53.90
2023-02-21T06:25:46.395Z,56.83
2023-02-21T06:27:47.900Z,58.65
2023-02-21T06:29:49.337Z,56.38
2023-02-21T06:31:57.596Z,58.38
2023-02-21T06:33:59.607Z,60.90
2023-02-21T06:36:06.066Z,57.08
2023-02-21T06:38:07.477Z,56.25
2023-02-21T06:40:09.388Z,61.00
2023-02-21T06:42:15.707Z,60.60
2023-02-21T06:44:17.456Z,63.17
2023-02-21T06:46:20.742Z,56.95
2023-02-21T06:48:22.122Z,58.05
2023-02-21T06:50:23.545Z,60.13
2023-02-21T06:52:24.965Z,62.45
2023-02-21T06:54:26.417Z,62.03
2023-02-21T06:56:27.978Z,57.60
2023-02-21T06:58:29.405Z,62.90
2023-02-21T07:00:30.824Z,61.78
2023-02-21T07:02:32.238Z,60.78
2023-02-21T07:04:33.672Z,66.07
2023-02-21T07:06:35.130Z,64.32
2023-02-21T07:08:36.613Z,70.13
2023-02-21T07:10:38.033Z,63.05
2023-02-21T07:12:40.005Z,63.80
2023-02-21T07:14:41.391Z,67.18
2023-02-21T07:16:42.749Z,65.90
2023-02-21T07:18:47.549Z,63.13
2023-02-21T07:20:49.580Z,64.85
2023-02-21T07:22:50.987Z,64.68
2023-02-21T07:24:53.702Z,66.28
2023-02-21T07:26:55.885Z,58.50
2023-02-21T07:28:57.348Z,67.95
2023-02-21T07:30:58.780Z,62.72
2023-02-21T07:33:00.263Z,62.72
2023-02-21T07:35:01.664Z,63.40
2023-02-21T07:37:03.296Z,61.17
2023-02-21T07:39:04.867Z,54.60
2023-02-21T07:41:06.278Z,58.17
2023-02-21T07:43:07.699Z,56.10
2023-02-21T07:45:11.166Z,58.97
2023-02-21T07:47:12.548Z,57.60
2023-02-21T07:49:13.988Z,60.55
2023-02-21T07:51:15.703Z,62.08
2023-02-21T07:53:17.960Z,55.03
2023-02-21T07:55:19.354Z,59.50
2023-02-21T07:57:20.826Z,57.95
2023-02-21T07:59:22.286Z,57.65
2023-02-21T08:01:26.017Z,58.15
2023-02-21T08:03:27.404Z,58.70
2023-02-21T08:05:28.895Z,57.70
2023-02-21T08:07:30.496Z,55.05
2023-02-21T08:09:33.257Z,62.75
2023-02-21T08:11:36.637Z,60.92
2023-02-21T08:13:38.190Z,59.08
2023-02-21T08:15:39.614Z,65.50
2023-02-21T08:17:41.015Z,60.00
2023-02-21T08:19:42.532Z,62.45
2023-02-21T08:21:48.817Z,60.97
2023-02-21T08:23:54.956Z,56.95
2023-02-21T08:25:56.378Z,62.15
2023-02-21T08:27:58.798Z,57.60
2023-02-21T08:30:00.245Z,60.83
2023-02-21T08:32:01.739Z,62.63
2023-02-21T08:34:03.862Z,62.70
2023-02-21T08:36:05.648Z,63.63
2023-02-21T08:38:08.406Z,64.47
2023-02-21T08:40:10.325Z,61.65
2023-02-21T08:42:12.803Z,61.67
2023-02-21T08:44:16.334Z,59.42
2023-02-21T08:46:17.978Z,65.15
2023-02-21T08:48:19.453Z,68.10
2023-02-21T08:50:22.882Z,61.85
2023-02-21T08:52:24.286Z,61.85
2023-02-21T08:54:25.667Z,66.47
2023-02-21T08:56:28.039Z,62.97
2023-02-21T08:58:29.414Z,63.92
2023-02-21T09:00:30.870Z,69.25
2023-02-21T09:02:32.811Z,62.15
2023-02-21T09:04:35.828Z,66.05
2023-02-21T09:06:37.233Z,65.78
2023-02-21T09:08:39.092Z,69.65
2023-02-21T09:10:47.261Z,67.70
2023-02-21T09:12:49.069Z,68.40
2023-02-21T09:14:50.474Z,70.50
2023-02-21T09:16:51.860Z,63.22
2023-02-21T09:18:55.996Z,64.50
2023-02-21T09:20:58.109Z,62.35
2023-02-21T09:22:59.529Z,61.05
2023-02-21T09:25:02.611Z,67.22
2023-02-21T09:27:04.493Z,65.75
2023-02-21T09:29:06.054Z,62.35
2023-02-21T09:31:07.423Z,59.80
2023-02-21T09:33:09.540Z,65.72
2023-02-21T09:35:13.849Z,63.25
2023-02-21T09:37:15.281Z,61.33
2023-02-21T09:39:17.907Z,61.78
2023-02-21T09:41:19.884Z,51.90
2023-02-21T09:43:31.486Z,59.90
2023-02-21T09:45:36.168Z,55.97
2023-02-21T09:47:39.239Z,53.97
2023-02-21T09:49:43.908Z,56.92
2023-02-21T09:51:45.805Z,56.00
2023-02-21T09:53:48.527Z,55.75
2023-02-21T09:55:53.538Z,51.42
2023-02-21T09:57:56.419Z,52.78
2023-02-21T09:59:57.857Z,50.42
2023-02-21T10:02:14.032Z,49.33
2023-02-21T10:04:35.783Z,54.80
2023-02-21T10:06:51.279Z,51.60
2023-02-21T10:09:11.045Z,45.28
2023-02-21T10:11:45.516Z,45.03
2023-02-21T10:13:56.833Z,50.20
2023-02-21T10:16:13.070Z,49.17
2023-02-21T10:18:33.138Z,44.60
2023-02-21T10:20:52.314Z,41.08
2023-02-21T10:22:56.319Z,46.50
2023-02-21T10:24:57.887Z,45.10
2023-02-21T10:27:05.824Z,41.10
2023-02-21T10:29:20.176Z,43.70
2023-02-21T10:31:31.296Z,39.22
2023-02-21T10:33:36.253Z,38.53
2023-02-21T10:35:38.974Z,37.10
2023-02-21T10:37:53.637Z,41.45
2023-02-21T10:40:20.598Z,37.40
2023-02-21T10:42:31.826Z,36.65
2023-02-21T10:44:35.778Z,36.88
2023-02-21T10:46:45.230Z,41.35
2023-02-21T10:48:50.298Z,39.22
2023-02-21T10:51:04.187Z,37.95
2023-02-21T10:53:06.690Z,36.17
2023-02-21T10:55:32.377Z,29.70
2023-02-21T10:57:41.146Z,34.22
2023-02-21T10:59:43.454Z,35.25
2023-02-21T11:01:46.503Z,33.08
2023-02-21T11:03:53.769Z,31.95
2023-02-21T11:05:58.581Z,33.03
2023-02-21T11:08:09.125Z,30.20
2023-02-21T11:10:32.982Z,31.40
2023-02-21T11:12:34.516Z,32.08
2023-02-21T11:14:35.996Z,26.67
2023-02-21T11:16:37.494Z,30.23
2023-02-21T11:18:38.958Z,28.27
2023-02-21T11:20:40.938Z,30.35
2023-02-21T11:22:45.560Z,33.33
2023-02-21T11:24:59.862Z,29.15
2023-02-21T11:27:01.272Z,31.00
2023-02-21T11:29:13.822Z,26.77
2023-02-21T11:31:30.144Z,25.67
2023-02-21T11:33:32.928Z,27.63
2023-02-21T11:35:47.973Z,27.13
2023-02-21T11:38:01.521Z,25.98
2023-02-21T11:40:05.791Z,26.15
2023-02-21T11:42:34.147Z,25.52
2023-02-21T11:44:43.115Z,23.92
2023-02-21T11:46:47.203Z,24.08
2023-02-21T11:49:01.312Z,24.42
2023-02-21T11:51:30.379Z,28.15
2023-02-21T11:53:40.387Z,24.23
2023-02-21T11:55:50.425Z,24.85
2023-02-21T11:57:58.080Z,30.63
2023-02-21T12:00:37.839Z,22.98
2023-02-21T12:03:14.800Z,25.55
2023-02-21T12:05:42.643Z,22.95
2023-02-21T12:08:23.791Z,24.20
2023-02-21T12:10:53.009Z,23.33
2023-02-21T12:13:12.648Z,28.58
2023-02-21T12:15:30.910Z,22.73
2023-02-21T12:17:49.560Z,23.30
2023-02-21T12:20:24.939Z,25.27
2023-02-21T12:22:53.558Z,26.02
2023-02-21T12:25:03.907Z,25.45
2023-02-21T12:27:28.582Z,25.90
2023-02-21T12:29:29.974Z,21.38
2023-02-21T12:32:05.468Z,24.48
2023-02-21T12:34:19.067Z,20.77
2023-02-21T12:36:36.260Z,21.30
2023-02-21T12:39:13.004Z,17.35
2023-02-21T12:41:40.613Z,15.10
2023-02-21T12:43:54.889Z,15.80
2023-02-21T12:46:17.264Z,14.43
2023-02-21T12:48:38.251Z,15.25
2023-02-21T12:50:43.774Z,16.30
2023-02-21T12:53:03.119Z,18.83
2023-02-21T12:55:22.034Z,17.33
2023-02-21T12:57:37.285Z,18.92
2023-02-21T12:59:52.358Z,16.77
2023-02-21T13:02:01.302Z,16.83
2023-02-21T13:04:57.309Z,17.52
2023-02-21T13:07:07.529Z,20.17
2023-02-21T13:09:28.076Z,19.02
2023-02-21T13:11:37.772Z,20.10
2023-02-21T13:13:39.329Z,21.63
2023-02-21T13:15:43.581Z,22.45
2023-02-21T13:17:55.648Z,21.90
2023-02-21T13:20:09.215Z,23.20
2023-02-21T13:23:07.396Z,25.60
2023-02-21T13:25:17.629Z,27.15
2023-02-21T13:27:37.932Z,26.23
2023-02-21T13:29:42.360Z,25.77
2023-02-21T13:31:45.879Z,27.40
2023-02-21T13:33:52.776Z,30.25
2023-02-21T13:38:00.121Z,30.88
2023-02-21T13:40:16.503Z,30.88
2023-02-21T13:42:24.802Z,27.33
2023-02-21T13:44:48.610Z,26.08
2023-02-21T13:46:53.172Z,28.05
2023-02-21T13:49:32.069Z,28.00
2023-02-21T13:51:53.000Z,27.80
2023-02-21T13:54:11.326Z,32.15
2023-02-21T13:56:15.561Z,27.92
2023-02-21T13:58:18.854Z,29.65
2023-02-21T14:00:26.676Z,29.33
2023-02-21T14:02:32.746Z,24.63
2023-02-21T14:04:58.096Z,28.02
2023-02-21T14:06:59.660Z,28.75
2023-02-21T14:09:06.962Z,29.40
2023-02-21T14:11:10.229Z,31.73
2023-02-21T14:13:22.377Z,30.48
2023-02-21T14:15:23.974Z,34.45
2023-02-21T14:17:29.399Z,32.50
2023-02-21T14:19:30.832Z,30.50
2023-02-21T14:21:32.166Z,35.15
2023-02-21T14:23:45.475Z,31.15
2023-02-21T14:26:00.110Z,30.90
2023-02-21T14:28:02.123Z,32.45
2023-02-21T14:30:12.971Z,32.53
2023-02-21T14:32:14.562Z,32.67
2023-02-21T14:34:48.390Z,34.25
2023-02-21T14:36:52.074Z,34.05
2023-02-21T14:38:54.198Z,32.58
2023-02-21T14:41:07.903Z,31.33
2023-02-21T14:43:54.577Z,31.30
2023-02-21T14:46:27.048Z,31.85
2023-02-21T14:48:40.341Z,35.85
2023-02-21T14:51:14.105Z,33.17
2023-02-21T14:53:37.247Z,31.92
2023-02-21T14:55:50.787Z,32.97
2023-02-21T14:58:29.850Z,33.30
2023-02-21T15:01:02.672Z,36.40
2023-02-21T15:03:20.830Z,35.50
2023-02-21T15:05:30.062Z,35.03
2023-02-21T15:07:37.506Z,39.22
2023-02-21T15:09:38.944Z,37.03
2023-02-21T15:11:41.226Z,36.97
2023-02-21T15:13:42.658Z,36.28
2023-02-21T15:15:44.145Z,35.90
2023-02-21T15:17:59.122Z,33.65
2023-02-21T15:20:13.752Z,36.83
2023-02-21T15:22:25.301Z,36.90
2023-02-21T15:24:28.328Z,37.58
2023-02-21T15:26:31.833Z,34.45
2023-02-21T15:28:33.385Z,35.97
2023-02-21T15:30:41.220Z,40.17
2023-02-21T15:32:43.360Z,33.35
2023-02-21T15:34:47.215Z,42.33
2023-02-21T15:37:12.503Z,39.97
2023-02-21T15:39:26.885Z,36.13
2023-02-21T15:41:33.886Z,37.58
2023-02-21T15:43:59.074Z,39.58
2023-02-21T15:46:03.294Z,36.65
2023-02-21T15:48:05.109Z,36.17
2023-02-21T15:50:12.269Z,39.70
2023-02-21T15:52:32.163Z,36.25
2023-02-21T15:54:38.317Z,39.60
2023-02-21T15:56:39.780Z,39.40
2023-02-21T15:58:41.277Z,41.28
2023-02-21T16:00:46.219Z,35.70
2023-02-21T16:02:47.755Z,39.67
2023-02-21T16:04:53.102Z,40.30
2023-02-21T16:06:57.657Z,35.88
2023-02-21T16:09:06.799Z,45.17
2023-02-21T16:11:08.240Z,44.35
2023-02-21T16:13:10.686Z,36.30
2023-02-21T16:15:18.213Z,42.45
2023-02-21T16:17:24.618Z,34.83
2023-02-21T16:19:32.652Z,43.38
2023-02-21T16:21:35.273Z,36.22
2023-02-21T16:23:40.786Z,37.08
2023-02-21T16:25:55.827Z,38.60
2023-02-21T16:28:00.110Z,40.80
2023-02-21T16:30:04.109Z,39.90
2023-02-21T16:32:06.802Z,36.65
2023-02-21T16:34:14.308Z,38.78
2023-02-21T16:36:30.791Z,41.78
2023-02-21T16:38:32.241Z,39.60
2023-02-21T16:40:35.282Z,41.58
2023-02-21T16:42:36.690Z,45.60
2023-02-21T16:44:38.101Z,43.95
2023-02-21T16:46:39.537Z,43.67
2023-02-21T16:48:41.205Z,38.88
2023-02-21T16:50:42.668Z,43.42
2023-02-21T16:52:44.107Z,43.85
2023-02-21T16:54:45.519Z,43.42
2023-02-21T16:56:50.408Z,42.65
2023-02-21T16:58:56.576Z,46.53
2023-02-21T17:01:01.192Z,40.55
2023-02-21T17:03:02.686Z,41.88
2023-02-21T17:05:04.204Z,53.38
2023-02-21T17:07:09.581Z,44.65
2023-02-21T17:09:18.815Z,51.28
2023-02-21T17:11:20.417Z,51.17
2023-02-21T17:13:21.905Z,51.83
2023-02-21T17:15:23.744Z,49.05
2023-02-21T17:17:25.226Z,42.28
2023-02-21T17:19:26.673Z,47.08
2023-02-21T17:21:28.096Z,50.78
2023-02-21T17:23:30.195Z,49.83
2023-02-21T17:25:32.608Z,50.17
2023-02-21T17:27:34.008Z,48.58
2023-02-21T17:29:35.388Z,49.63
2023-02-21T17:31:36.856Z,46.00
2023-02-21T17:33:40.121Z,43.10
2023-02-21T17:35:41.570Z,47.25
2023-02-21T17:37:43.635Z,51.17
2023-02-21T17:39:45.032Z,51.53
2023-02-21T17:41:48.343Z,56.20
2023-02-21T17:43:50.256Z,55.83
2023-02-21T17:45:51.729Z,51.08
2023-02-21T17:47:56.273Z,52.13
2023-02-21T17:50:01.832Z,57.50
2023-02-21T17:52:04.332Z,52.47
2023-02-21T17:54:05.803Z,57.92
2023-02-21T17:56:07.240Z,53.60
2023-02-21T17:58:09.691Z,52.95
2023-02-21T18:00:24.571Z,48.08
2023-02-21T18:02:25.967Z,52.53
2023-02-21T18:04:28.759Z,49.08
2023-02-21T18:06:30.610Z,52.53
2023-02-21T18:08:32.011Z,48.70
2023-02-21T18:10:33.434Z,50.85
2023-02-21T18:12:34.936Z,48.58
2023-02-21T18:14:36.390Z,51.53
2023-02-21T18:16:37.797Z,47.22
2023-02-21T18:18:39.273Z,49.88
2023-02-21T18:20:40.672Z,47.63
2023-02-21T18:22:42.761Z,49.90
2023-02-21T18:24:44.136Z,57.65
2023-02-21T18:26:46.532Z,46.58
2023-02-21T18:28:47.949Z,49.75
2023-02-21T18:30:51.234Z,44.97
2023-02-21T18:32:52.853Z,52.15
2023-02-21T18:34:54.324Z,46.13
2023-02-21T18:36:55.830Z,48.78
2023-02-21T18:38:57.765Z,50.08
2023-02-21T18:41:01.756Z,51.13
2023-02-21T18:43:05.999Z,48.35
2023-02-21T18:45:07.821Z,47.50
2023-02-21T18:47:11.174Z,48.75
2023-02-21T18:49:13.830Z,43.15
2023-02-21T18:51:18.800Z,47.97
2023-02-21T18:53:20.736Z,42.28
2023-02-21T18:55:22.150Z,45.55
2023-02-21T18:57:24.206Z,40.85
2023-02-21T18:59:25.612Z,43.38
2023-02-21T19:01:27.220Z,42.55
2023-02-21T19:03:28.797Z,50.28
2023-02-21T19:05:30.252Z,43.13
2023-02-21T19:07:36.211Z,46.17
2023-02-21T19:09:37.654Z,41.92
2023-02-21T19:11:39.375Z,47.22
2023-02-21T19:13:41.184Z,43.03
2023-02-21T19:15:43.172Z,41.83
2023-02-21T19:17:44.902Z,47.95
2023-02-21T19:19:46.287Z,43.08
2023-02-21T19:21:47.764Z,46.10
2023-02-21T19:23:49.294Z,43.90
2023-02-21T19:25:50.716Z,44.95
2023-02-21T19:27:59.964Z,40.88
2023-02-21T19:30:01.404Z,50.72
2023-02-21T19:32:03.127Z,45.83
2023-02-21T19:34:05.006Z,45.05
2023-02-21T19:36:07.997Z,41.72
2023-02-21T19:38:09.445Z,45.92
2023-02-21T19:40:11.094Z,48.08
2023-02-21T19:42:12.521Z,48.95
2023-02-21T19:44:14.473Z,51.40
2023-02-21T19:46:24.464Z,48.42
2023-02-21T19:48:26.014Z,51.72
2023-02-21T19:50:27.478Z,48.22
2023-02-21T19:52:29.210Z,47.30
2023-02-21T19:54:31.492Z,45.95
2023-02-21T19:56:32.906Z,46.83
2023-02-21T19:58:34.391Z,46.38
2023-02-21T20:00:38.512Z,46.65
2023-02-21T20:02:39.960Z,50.80
2023-02-21T20:04:43.346Z,47.72
2023-02-21T20:06:44.752Z,44.50
2023-02-21T20:08:48.143Z,51.35
2023-02-21T20:10:49.654Z,48.83
2023-02-21T20:12:55.493Z,47.28
2023-02-21T20:14:56.926Z,49.85
2023-02-21T20:16:58.423Z,48.28
2023-02-21T20:18:59.806Z,47.13
2023-02-21T20:21:01.184Z,47.45
2023-02-21T20:23:03.540Z,47.00
2023-02-21T20:25:05.879Z,52.20
2023-02-21T20:27:07.274Z,47.22
2023-02-21T20:29:08.696Z,49.22
2023-02-21T20:31:13.424Z,46.90
2023-02-21T20:33:15.147Z,50.75
2023-02-21T20:35:16.537Z,43.92
2023-02-21T20:37:19.137Z,57.80
2023-02-21T20:39:28.272Z,50.63
2023-02-21T20:41:35.418Z,52.03
2023-02-21T20:43:37.410Z,47.28
2023-02-21T20:45:39.206Z,54.05
2023-02-21T20:47:40.709Z,46.72
2023-02-21T20:49:46.448Z,45.85
2023-02-21T20:51:48.497Z,47.17
2023-02-21T20:53:49.888Z,47.88
2023-02-21T20:55:51.307Z,45.17
2023-02-21T20:57:52.763Z,49.35
2023-02-21T20:59:54.157Z,51.28
2023-02-21T21:01:56.222Z,46.95
2023-02-21T21:03:57.799Z,48.90
2023-02-21T21:05:59.225Z,54.55
2023-02-21T21:08:01.540Z,47.40
2023-02-21T21:10:03.150Z,51.30
2023-02-21T21:12:09.058Z,47.92
2023-02-21T21:14:10.661Z,49.25
2023-02-21T21:16:12.602Z,53.25
2023-02-21T21:18:13.980Z,51.45
2023-02-21T21:20:18.927Z,49.38
2023-02-21T21:22:24.225Z,47.45
2023-02-21T21:24:25.615Z,45.67
2023-02-21T21:26:27.025Z,46.85
2023-02-21T21:28:31.775Z,47.13
2023-02-21T21:30:33.347Z,46.80
2023-02-21T21:32:35.002Z,51.33
2023-02-21T21:34:38.855Z,59.63
2023-02-21T21:36:45.125Z,49.20
2023-02-21T21:38:47.037Z,48.20
2023-02-21T21:40:48.523Z,46.78
2023-02-21T21:42:54.961Z,45.10
2023-02-21T21:44:56.881Z,43.42
2023-02-21T21:47:02.186Z,48.00
2023-02-21T21:49:06.185Z,44.92
2023-02-21T21:51:09.364Z,53.90
2023-02-21T21:53:11.102Z,50.25
2023-02-21T21:55:18.655Z,44.42
2023-02-21T21:57:22.711Z,45.78
2023-02-21T21:59:26.733Z,45.92
2023-02-21T22:01:29.918Z,49.78
2023-02-21T22:03:32.013Z,49.45
2023-02-21T22:05:35.319Z,53.63
2023-02-21T22:07:36.710Z,47.05
2023-02-21T22:09:38.948Z,49.05
2023-02-21T22:11:43.075Z,50.25
2023-02-21T22:13:44.455Z,47.33
2023-02-21T22:15:46.701Z,48.88
2023-02-21T22:17:49.004Z,49.65
2023-02-21T22:19:50.509Z,48.90
2023-02-21T22:21:56.776Z,45.17
2023-02-21T22:23:58.765Z,45.42
2023-02-21T22:26:00.934Z,49.03
2023-02-21T22:28:05.401Z,42.65
2023-02-21T22:30:09.067Z,44.83
2023-02-21T22:32:10.720Z,49.50
2023-02-21T22:34:22.990Z,43.63
2023-02-21T22:36:25.510Z,46.75
2023-02-21T22:38:26.887Z,46.78
2023-02-21T22:40:29.943Z,46.65
2023-02-21T22:42:31.817Z,45.53
2023-02-21T22:44:33.208Z,45.97
2023-02-21T22:46:41.508Z,45.05
2023-02-21T22:48:44.713Z,43.97
2023-02-21T22:50:47.601Z,46.53
2023-02-21T22:52:50.943Z,48.42
2023-02-21T22:54:52.908Z,58.22
2023-02-21T22:57:03.425Z,57.08
2023-02-21T22:59:08.803Z,51.40
2023-02-21T23:01:10.183Z,52.17
2023-02-21T23:03:14.409Z,53.33
2023-02-21T23:05:19.560Z,61.13
2023-02-21T23:07:24.520Z,58.13
2023-02-21T23:09:29.001Z,53.97
2023-02-21T23:11:31.272Z,55.50
2023-02-21T23:13:32.947Z,56.55
2023-02-21T23:15:35.355Z,61.88
2023-02-21T23:17:38.044Z,56.63
2023-02-21T23:19:39.811Z,62.03
2023-02-21T23:21:46.331Z,58.72
2023-02-21T23:23:47.699Z,52.88
2023-02-21T23:25:49.131Z,60.05
2023-02-21T23:27:56.019Z,58.58
2023-02-21T23:29:58.794Z,59.53
2023-02-21T23:32:09.397Z,63.20
2023-02-21T23:34:12.042Z,55.92
2023-02-21T23:36:13.521Z,57.95
2023-02-21T23:38:15.747Z,57.70
2023-02-21T23:40:20.382Z,66.35
2023-02-21T23:42:23.664Z,59.15
2023-02-21T23:44:25.049Z,53.53
2023-02-21T23:46:29.148Z,59.63
2023-02-21T23:48:32.548Z,63.25
2023-02-21T23:50:35.084Z,58.15
2023-02-21T23:52:37.252Z,52.05
2023-02-21T23:54:40.271Z,52.50
2023-02-21T23:56:41.765Z,65.28
2023-02-21T23:58:46.423Z,61.58
